sensor_id;sensor_type;location;lat;lon;timestamp;temperature;humidity
6421;DHT22;3243;50.958;7.012;2022-12-18T00:01:20;-4.50;47.50
6421;DHT22;3243;50.958;7.012;2022-12-18T00:03:48;-4.50;16.40
6421;DHT22;3243;50.958;7.012;2022-12-18T00:06:16;-4.50;1.00
6421;DHT22;3243;50.958;7.012;2022-12-18T00:08:43;-4.50;1.00
6421;DHT22;3243;50.958;7.012;2022-12-18T00:11:16;-4.60;1.00
6421;DHT22;3243;50.958;7.012;2022-12-18T00:13:43;-4.80;1.00
6421;DHT22;3243;50.958;7.012;2022-12-18T00:16:12;-4.50;1.00
6421;DHT22;3243;50.958;7.012;2022-12-18T00:18:40;-4.50;5.00
6421;DHT22;3243;50.958;7.012;2022-12-18T00:21:09;-4.60;51.60
6421;DHT22;3243;50.958;7.012;2022-12-18T00:23:37;-4.50;99.90
6421;DHT22;3243;50.958;7.012;2022-12-18T00:26:08;-4.60;62.60
6421;DHT22;3243;50.958;7.012;2022-12-18T00:28:36;-4.50;18.90
6421;DHT22;3243;50.958;7.012;2022-12-18T00:31:05;-4.50;67.90
6421;DHT22;3243;50.958;7.012;2022-12-18T00:36:18;-4.60;1.00
6421;DHT22;3243;50.958;7.012;2022-12-18T00:38:46;-4.60;1.00
6421;DHT22;3243;50.958;7.012;2022-12-18T00:41:14;-4.60;1.00
6421;DHT22;3243;50.958;7.012;2022-12-18T00:44:02;-4.60;1.00
6421;DHT22;3243;50.958;7.012;2022-12-18T00:48:56;-4.70;1.00
6421;DHT22;3243;50.958;7.012;2022-12-18T00:51:24;-4.60;54.80
6421;DHT22;3243;50.958;7.012;2022-12-18T00:53:51;-4.60;91.50
6421;DHT22;3243;50.958;7.012;2022-12-18T00:58:44;-4.60;21.90
6421;DHT22;3243;50.958;7.012;2022-12-18T01:03:39;-4.60;1.00
6421;DHT22;3243;50.958;7.012;2022-12-18T01:06:08;-4.60;1.00
6421;DHT22;3243;50.958;7.012;2022-12-18T01:08:35;-4.60;1.00
6421;DHT22;3243;50.958;7.012;2022-12-18T01:11:15;-4.60;1.00
6421;DHT22;3243;50.958;7.012;2022-12-18T01:13:43;-4.60;1.00
6421;DHT22;3243;50.958;7.012;2022-12-18T01:16:14;-4.60;1.00
6421;DHT22;3243;50.958;7.012;2022-12-18T01:21:12;-4.60;1.00
6421;DHT22;3243;50.958;7.012;2022-12-18T01:23:39;-4.60;1.00
6421;DHT22;3243;50.958;7.012;2022-12-18T01:26:09;-4.60;99.90
6421;DHT22;3243;50.958;7.012;2022-12-18T01:28:37;-4.60;99.90
6421;DHT22;3243;50.958;7.012;2022-12-18T01:36:18;-4.60;99.90
6421;DHT22;3243;50.958;7.012;2022-12-18T01:38:46;-4.60;99.90
6421;DHT22;3243;50.958;7.012;2022-12-18T01:41:15;-4.60;99.90
6421;DHT22;3243;50.958;7.012;2022-12-18T01:46:10;-4.60;99.90
6421;DHT22;3243;50.958;7.012;2022-12-18T01:48:37;-4.60;99.90
6421;DHT22;3243;50.958;7.012;2022-12-18T01:51:06;-4.70;99.90
6421;DHT22;3243;50.958;7.012;2022-12-18T01:53:34;-4.70;99.90
6421;DHT22;3243;50.958;7.012;2022-12-18T01:56:03;-4.70;99.90
6421;DHT22;3243;50.958;7.012;2022-12-18T02:01:02;-4.80;1.00
6421;DHT22;3243;50.958;7.012;2022-12-18T02:03:29;-4.70;1.00
6421;DHT22;3243;50.958;7.012;2022-12-18T02:14:09;-4.70;1.00
6421;DHT22;3243;50.958;7.012;2022-12-18T02:24:43;-4.80;1.00
6421;DHT22;3243;50.958;7.012;2022-12-18T02:29:54;-4.90;1.00
6421;DHT22;3243;50.958;7.012;2022-12-18T02:32:34;-4.90;33.20
6421;DHT22;3243;50.958;7.012;2022-12-18T02:35:04;-4.80;99.90
6421;DHT22;3243;50.958;7.012;2022-12-18T02:37:32;-4.90;99.90
6421;DHT22;3243;50.958;7.012;2022-12-18T02:42:28;-4.90;99.90
6421;DHT22;3243;50.958;7.012;2022-12-18T02:47:24;-4.90;99.90
6421;DHT22;3243;50.958;7.012;2022-12-18T02:52:35;-4.90;99.90
6421;DHT22;3243;50.958;7.012;2022-12-18T03:04:04;-4.90;1.00
6421;DHT22;3243;50.958;7.012;2022-12-18T03:06:40;-4.90;99.90
6421;DHT22;3243;50.958;7.012;2022-12-18T03:09:10;-4.70;99.90
6421;DHT22;3243;50.958;7.012;2022-12-18T03:11:41;-4.90;99.90
6421;DHT22;3243;50.958;7.012;2022-12-18T03:14:30;-4.90;99.90
6421;DHT22;3243;50.958;7.012;2022-12-18T03:17:06;-4.90;99.90
6421;DHT22;3243;50.958;7.012;2022-12-18T03:19:35;-5.00;99.90
6421;DHT22;3243;50.958;7.012;2022-12-18T03:22:07;-4.90;99.90
6421;DHT22;3243;50.958;7.012;2022-12-18T03:24:35;-4.90;99.90
6421;DHT22;3243;50.958;7.012;2022-12-18T03:27:12;-4.90;99.90
6421;DHT22;3243;50.958;7.012;2022-12-18T03:29:55;-4.90;99.90
6421;DHT22;3243;50.958;7.012;2022-12-18T03:32:31;-4.90;99.90
6421;DHT22;3243;50.958;7.012;2022-12-18T03:35:03;-5.00;99.90
6421;DHT22;3243;50.958;7.012;2022-12-18T03:45:15;-5.00;1.00
6421;DHT22;3243;50.958;7.012;2022-12-18T03:54:06;-5.00;25.90
6421;DHT22;3243;50.958;7.012;2022-12-18T03:56:09;-5.00;99.90
6421;DHT22;3243;50.958;7.012;2022-12-18T03:58:38;-5.00;99.90
6421;DHT22;3243;50.958;7.012;2022-12-18T04:01:10;-5.00;99.90
6421;DHT22;3243;50.958;7.012;2022-12-18T04:03:40;-5.10;99.90
6421;DHT22;3243;50.958;7.012;2022-12-18T04:06:10;-5.10;99.90
6421;DHT22;3243;50.958;7.012;2022-12-18T04:08:38;-5.10;99.90
6421;DHT22;3243;50.958;7.012;2022-12-18T04:11:06;-5.20;99.90
6421;DHT22;3243;50.958;7.012;2022-12-18T04:13:36;-5.10;99.90
6421;DHT22;3243;50.958;7.012;2022-12-18T04:16:03;-5.10;99.90
6421;DHT22;3243;50.958;7.012;2022-12-18T04:23:25;-5.10;99.90
6421;DHT22;3243;50.958;7.012;2022-12-18T04:30:49;-5.10;99.90
6421;DHT22;3243;50.958;7.012;2022-12-18T04:33:16;-5.10;99.90
6421;DHT22;3243;50.958;7.012;2022-12-18T04:35:43;-5.10;93.00
6421;DHT22;3243;50.958;7.012;2022-12-18T04:40:38;-5.10;54.10
6421;DHT22;3243;50.958;7.012;2022-12-18T04:45:33;-5.20;1.00
6421;DHT22;3243;50.958;7.012;2022-12-18T04:50:28;-5.10;1.00
6421;DHT22;3243;50.958;7.012;2022-12-18T04:52:55;-5.10;1.00
6421;DHT22;3243;50.958;7.012;2022-12-18T04:55:24;-5.10;1.00
6421;DHT22;3243;50.958;7.012;2022-12-18T04:57:51;-5.20;1.00
6421;DHT22;3243;50.958;7.012;2022-12-18T05:00:18;-5.20;1.00
6421;DHT22;3243;50.958;7.012;2022-12-18T05:05:13;-5.20;1.00
6421;DHT22;3243;50.958;7.012;2022-12-18T05:10:07;-5.30;1.00
6421;DHT22;3243;50.958;7.012;2022-12-18T05:17:50;-5.20;1.00
6421;DHT22;3243;50.958;7.012;2022-12-18T05:20:16;-5.30;1.00
6421;DHT22;3243;50.958;7.012;2022-12-18T05:22:44;-5.30;1.00
6421;DHT22;3243;50.958;7.012;2022-12-18T05:25:11;-5.10;1.00
6421;DHT22;3243;50.958;7.012;2022-12-18T05:32:32;-5.30;1.00
6421;DHT22;3243;50.958;7.012;2022-12-18T05:34:59;-5.20;1.00
6421;DHT22;3243;50.958;7.012;2022-12-18T05:37:26;-5.20;1.00
6421;DHT22;3243;50.958;7.012;2022-12-18T05:39:52;-5.20;1.00
6421;DHT22;3243;50.958;7.012;2022-12-18T05:42:19;-5.20;1.00
6421;DHT22;3243;50.958;7.012;2022-12-18T05:44:47;-5.20;1.00
6421;DHT22;3243;50.958;7.012;2022-12-18T05:47:14;-5.30;1.00
6421;DHT22;3243;50.958;7.012;2022-12-18T05:52:08;-5.20;1.00
6421;DHT22;3243;50.958;7.012;2022-12-18T05:57:02;-5.20;1.00
6421;DHT22;3243;50.958;7.012;2022-12-18T05:59:29;-5.20;1.00
6421;DHT22;3243;50.958;7.012;2022-12-18T06:04:23;-5.30;1.00
6421;DHT22;3243;50.958;7.012;2022-12-18T06:09:16;-5.30;73.70
6421;DHT22;3243;50.958;7.012;2022-12-18T06:11:43;-5.30;99.90
6421;DHT22;3243;50.958;7.012;2022-12-18T06:14:10;-5.20;99.90
6421;DHT22;3243;50.958;7.012;2022-12-18T06:16:36;-5.30;99.90
6421;DHT22;3243;50.958;7.012;2022-12-18T06:19:05;-5.30;99.90
6421;DHT22;3243;50.958;7.012;2022-12-18T06:21:32;-5.30;1.00
6421;DHT22;3243;50.958;7.012;2022-12-18T06:23:59;-5.30;1.00
6421;DHT22;3243;50.958;7.012;2022-12-18T06:26:26;-5.30;1.00
6421;DHT22;3243;50.958;7.012;2022-12-18T06:31:21;-5.20;1.00
6421;DHT22;3243;50.958;7.012;2022-12-18T06:33:48;-5.10;1.00
6421;DHT22;3243;50.958;7.012;2022-12-18T06:38:43;-5.20;99.90
6421;DHT22;3243;50.958;7.012;2022-12-18T06:41:16;-5.30;99.90
6421;DHT22;3243;50.958;7.012;2022-12-18T06:46:10;-5.20;99.90
6421;DHT22;3243;50.958;7.012;2022-12-18T06:48:38;-5.20;99.90
6421;DHT22;3243;50.958;7.012;2022-12-18T06:51:05;-5.30;1.00
6421;DHT22;3243;50.958;7.012;2022-12-18T06:53:32;-5.40;1.00
6421;DHT22;3243;50.958;7.012;2022-12-18T06:56:03;-5.30;1.00
6421;DHT22;3243;50.958;7.012;2022-12-18T07:01:04;-5.30;1.00
6421;DHT22;3243;50.958;7.012;2022-12-18T07:05:59;-5.40;1.00
6421;DHT22;3243;50.958;7.012;2022-12-18T07:10:53;-5.50;99.90
6421;DHT22;3243;50.958;7.012;2022-12-18T07:13:22;-5.40;99.90
6421;DHT22;3243;50.958;7.012;2022-12-18T07:15:49;-5.50;1.00
6421;DHT22;3243;50.958;7.012;2022-12-18T07:18:16;-5.40;1.00
6421;DHT22;3243;50.958;7.012;2022-12-18T07:30:39;-5.30;1.00
6421;DHT22;3243;50.958;7.012;2022-12-18T07:33:07;-5.30;99.90
6421;DHT22;3243;50.958;7.012;2022-12-18T07:35:37;-5.30;77.90
6421;DHT22;3243;50.958;7.012;2022-12-18T07:38:04;-5.40;1.00
6421;DHT22;3243;50.958;7.012;2022-12-18T07:40:30;-5.40;1.00
6421;DHT22;3243;50.958;7.012;2022-12-18T07:50:18;-5.30;99.90
6421;DHT22;3243;50.958;7.012;2022-12-18T07:52:45;-5.10;99.90
6421;DHT22;3243;50.958;7.012;2022-12-18T07:55:13;-5.20;99.90
6421;DHT22;3243;50.958;7.012;2022-12-18T08:02:46;-5.00;99.90
6421;DHT22;3243;50.958;7.012;2022-12-18T08:07:41;-5.00;99.90
6421;DHT22;3243;50.958;7.012;2022-12-18T08:10:08;-5.10;97.40
6421;DHT22;3243;50.958;7.012;2022-12-18T08:12:34;-5.00;92.50
6421;DHT22;3243;50.958;7.012;2022-12-18T08:15:01;-4.90;1.00
6421;DHT22;3243;50.958;7.012;2022-12-18T08:24:50;-4.70;1.00
6421;DHT22;3243;50.958;7.012;2022-12-18T08:27:17;-4.90;1.00
6421;DHT22;3243;50.958;7.012;2022-12-18T08:32:23;-4.50;1.00
6421;DHT22;3243;50.958;7.012;2022-12-18T08:34:50;-4.40;1.00
6421;DHT22;3243;50.958;7.012;2022-12-18T08:37:17;-4.30;1.00
6421;DHT22;3243;50.958;7.012;2022-12-18T08:42:11;-4.30;1.00
6421;DHT22;3243;50.958;7.012;2022-12-18T08:44:56;-4.20;1.00
6421;DHT22;3243;50.958;7.012;2022-12-18T08:47:23;-4.20;99.90
6421;DHT22;3243;50.958;7.012;2022-12-18T08:52:17;-3.90;99.90
6421;DHT22;3243;50.958;7.012;2022-12-18T09:16:48;-3.10;1.00
6421;DHT22;3243;50.958;7.012;2022-12-18T09:19:14;-3.00;99.90
6421;DHT22;3243;50.958;7.012;2022-12-18T09:24:17;-2.90;99.90
6421;DHT22;3243;50.958;7.012;2022-12-18T09:31:40;-2.60;99.90
6421;DHT22;3243;50.958;7.012;2022-12-18T09:39:02;-2.50;99.90
6421;DHT22;3243;50.958;7.012;2022-12-18T09:41:44;-2.40;99.90
6421;DHT22;3243;50.958;7.012;2022-12-18T09:46:50;-2.20;99.90
6421;DHT22;3243;50.958;7.012;2022-12-18T09:49:22;-2.10;99.90
6421;DHT22;3243;50.958;7.012;2022-12-18T09:52:04;-2.00;99.90
6421;DHT22;3243;50.958;7.012;2022-12-18T09:54:36;-1.80;99.90
6421;DHT22;3243;50.958;7.012;2022-12-18T09:59:38;-1.60;99.90
6421;DHT22;3243;50.958;7.012;2022-12-18T10:02:32;-1.50;99.90
6421;DHT22;3243;50.958;7.012;2022-12-18T10:05:10;-1.40;99.90
6421;DHT22;3243;50.958;7.012;2022-12-18T10:13:08;-1.20;99.90
6421;DHT22;3243;50.958;7.012;2022-12-18T10:19:03;-1.10;99.90
6421;DHT22;3243;50.958;7.012;2022-12-18T10:22:02;-0.90;99.90
6421;DHT22;3243;50.958;7.012;2022-12-18T10:25:02;-0.80;99.90
6421;DHT22;3243;50.958;7.012;2022-12-18T10:27:32;-0.70;99.90
6421;DHT22;3243;50.958;7.012;2022-12-18T10:30:00;-0.70;99.90
6421;DHT22;3243;50.958;7.012;2022-12-18T10:32:29;-0.60;99.90
6421;DHT22;3243;50.958;7.012;2022-12-18T10:34:57;-0.50;97.00
6421;DHT22;3243;50.958;7.012;2022-12-18T10:37:29;-0.60;89.70
6421;DHT22;3243;50.958;7.012;2022-12-18T10:40:11;-0.40;93.60
6421;DHT22;3243;50.958;7.012;2022-12-18T10:42:49;-0.40;96.10
6421;DHT22;3243;50.958;7.012;2022-12-18T10:47:56;-0.20;77.60
6421;DHT22;3243;50.958;7.012;2022-12-18T10:50:31;-0.20;76.40
6421;DHT22;3243;50.958;7.012;2022-12-18T10:53:29;-0.20;64.00
6421;DHT22;3243;50.958;7.012;2022-12-18T10:56:02;-0.20;63.90
6421;DHT22;3243;50.958;7.012;2022-12-18T11:01:10;-0.10;13.40
6421;DHT22;3243;50.958;7.012;2022-12-18T11:03:43;-0.10;6.60
6421;DHT22;3243;50.958;7.012;2022-12-18T11:06:19;-0.10;6.80
6421;DHT22;3243;50.958;7.012;2022-12-18T11:09:05;-0.20;4.60
6421;DHT22;3243;50.958;7.012;2022-12-18T11:11:38;0.00;5.20
6421;DHT22;3243;50.958;7.012;2022-12-18T11:14:12;0.00;1.00
6421;DHT22;3243;50.958;7.012;2022-12-18T11:16:49;0.00;1.40
6421;DHT22;3243;50.958;7.012;2022-12-18T11:19:37;0.00;1.00
6421;DHT22;3243;50.958;7.012;2022-12-18T11:22:24;0.00;1.00
6421;DHT22;3243;50.958;7.012;2022-12-18T11:24:56;0.00;1.00
6421;DHT22;3243;50.958;7.012;2022-12-18T11:27:58;0.10;4.60
6421;DHT22;3243;50.958;7.012;2022-12-18T11:38:18;0.10;1.00
6421;DHT22;3243;50.958;7.012;2022-12-18T11:40:51;0.30;99.90
6421;DHT22;3243;50.958;7.012;2022-12-18T11:43:38;0.30;8.30
6421;DHT22;3243;50.958;7.012;2022-12-18T11:46:12;0.10;1.00
6421;DHT22;3243;50.958;7.012;2022-12-18T11:51:38;0.20;1.00
6421;DHT22;3243;50.958;7.012;2022-12-18T11:54:14;0.20;1.00
6421;DHT22;3243;50.958;7.012;2022-12-18T11:56:53;0.20;1.00
6421;DHT22;3243;50.958;7.012;2022-12-18T12:01:55;0.10;1.00
6421;DHT22;3243;50.958;7.012;2022-12-18T12:15:29;0.10;1.00
6421;DHT22;3243;50.958;7.012;2022-12-18T12:26:19;0.10;1.00
6421;DHT22;3243;50.958;7.012;2022-12-18T12:29:16;0.10;1.00
6421;DHT22;3243;50.958;7.012;2022-12-18T12:37:30;0.10;1.00
6421;DHT22;3243;50.958;7.012;2022-12-18T12:40:00;0.10;1.00
6421;DHT22;3243;50.958;7.012;2022-12-18T12:48:49;0.10;1.00
6421;DHT22;3243;50.958;7.012;2022-12-18T12:51:28;0.10;1.00
6421;DHT22;3243;50.958;7.012;2022-12-18T12:53:57;0.10;1.00
6421;DHT22;3243;50.958;7.012;2022-12-18T12:57:00;0.00;1.00
6421;DHT22;3243;50.958;7.012;2022-12-18T12:59:40;0.10;1.00
6421;DHT22;3243;50.958;7.012;2022-12-18T13:10:30;0.20;1.00
6421;DHT22;3243;50.958;7.012;2022-12-18T13:18:20;0.20;1.00
6421;DHT22;3243;50.958;7.012;2022-12-18T13:23:34;0.20;1.00
6421;DHT22;3243;50.958;7.012;2022-12-18T13:33:45;0.10;1.00
6421;DHT22;3243;50.958;7.012;2022-12-18T13:36:33;-0.10;1.00
6421;DHT22;3243;50.958;7.012;2022-12-18T13:44:39;0.10;1.00
6421;DHT22;3243;50.958;7.012;2022-12-18T13:47:35;0.00;1.00
6421;DHT22;3243;50.958;7.012;2022-12-18T13:50:24;0.40;1.00
6421;DHT22;3243;50.958;7.012;2022-12-18T13:55:28;0.00;1.00
6421;DHT22;3243;50.958;7.012;2022-12-18T13:58:05;-0.10;1.00
6421;DHT22;3243;50.958;7.012;2022-12-18T14:00:33;-0.10;1.40
6421;DHT22;3243;50.958;7.012;2022-12-18T14:08:01;0.80;7.30
6421;DHT22;3243;50.958;7.012;2022-12-18T14:10:29;-0.40;7.30
6421;DHT22;3243;50.958;7.012;2022-12-18T14:13:27;-0.30;6.60
6421;DHT22;3243;50.958;7.012;2022-12-18T14:15:55;-0.40;9.90
6421;DHT22;3243;50.958;7.012;2022-12-18T14:18:29;-0.40;12.10
6421;DHT22;3243;50.958;7.012;2022-12-18T14:21:00;-0.40;13.10
6421;DHT22;3243;50.958;7.012;2022-12-18T14:23:42;-0.50;14.40
6421;DHT22;3243;50.958;7.012;2022-12-18T14:26:25;-0.50;23.90
6421;DHT22;3243;50.958;7.012;2022-12-18T14:29:00;-0.40;28.00
6421;DHT22;3243;50.958;7.012;2022-12-18T14:31:31;-0.50;30.40
6421;DHT22;3243;50.958;7.012;2022-12-18T14:33:58;-0.50;25.90
6421;DHT22;3243;50.958;7.012;2022-12-18T14:36:27;-0.50;26.00
6421;DHT22;3243;50.958;7.012;2022-12-18T14:38:58;-0.50;29.50
6421;DHT22;3243;50.958;7.012;2022-12-18T14:41:26;-0.50;34.60
6421;DHT22;3243;50.958;7.012;2022-12-18T14:43:54;-0.50;35.50
6421;DHT22;3243;50.958;7.012;2022-12-18T14:48:51;-0.60;26.90
6421;DHT22;3243;50.958;7.012;2022-12-18T14:51:28;-0.60;28.00
6421;DHT22;3243;50.958;7.012;2022-12-18T14:54:04;-0.60;29.80
6421;DHT22;3243;50.958;7.012;2022-12-18T14:56:36;-0.70;29.70
6421;DHT22;3243;50.958;7.012;2022-12-18T14:59:15;-0.70;34.40
6421;DHT22;3243;50.958;7.012;2022-12-18T15:09:37;-0.70;40.90
6421;DHT22;3243;50.958;7.012;2022-12-18T15:12:04;-0.70;31.90
6421;DHT22;3243;50.958;7.012;2022-12-18T15:14:39;-0.80;29.50
6421;DHT22;3243;50.958;7.012;2022-12-18T15:17:17;-0.80;41.00
6421;DHT22;3243;50.958;7.012;2022-12-18T15:19:46;-0.80;46.80
6421;DHT22;3243;50.958;7.012;2022-12-18T15:24:54;-0.80;70.30
6421;DHT22;3243;50.958;7.012;2022-12-18T15:30:20;-0.80;61.20
6421;DHT22;3243;50.958;7.012;2022-12-18T15:32:48;-0.80;49.00
6421;DHT22;3243;50.958;7.012;2022-12-18T15:35:21;-0.90;48.20
6421;DHT22;3243;50.958;7.012;2022-12-18T15:37:52;-0.90;52.50
6421;DHT22;3243;50.958;7.012;2022-12-18T15:40:23;-0.90;54.60
6421;DHT22;3243;50.958;7.012;2022-12-18T15:42:53;-0.90;60.80
6421;DHT22;3243;50.958;7.012;2022-12-18T15:48:20;-1.00;68.60
6421;DHT22;3243;50.958;7.012;2022-12-18T15:55:41;-1.00;83.80
6421;DHT22;3243;50.958;7.012;2022-12-18T15:58:27;-1.00;94.90
6421;DHT22;3243;50.958;7.012;2022-12-18T16:00:55;-1.00;93.50
6421;DHT22;3243;50.958;7.012;2022-12-18T16:10:45;-1.10;99.90
6421;DHT22;3243;50.958;7.012;2022-12-18T16:13:16;-1.10;99.90
6421;DHT22;3243;50.958;7.012;2022-12-18T16:15:44;-1.10;99.90
6421;DHT22;3243;50.958;7.012;2022-12-18T16:20:38;-1.10;99.90
6421;DHT22;3243;50.958;7.012;2022-12-18T16:25:33;-1.20;99.90
6421;DHT22;3243;50.958;7.012;2022-12-18T16:30:29;-1.20;99.90
6421;DHT22;3243;50.958;7.012;2022-12-18T16:50:15;-1.20;99.90
6421;DHT22;3243;50.958;7.012;2022-12-18T16:55:09;-1.20;99.90
6421;DHT22;3243;50.958;7.012;2022-12-18T17:00:04;-1.30;99.90
6421;DHT22;3243;50.958;7.012;2022-12-18T17:02:32;-1.20;99.90
6421;DHT22;3243;50.958;7.012;2022-12-18T17:04:59;-1.20;99.90
6421;DHT22;3243;50.958;7.012;2022-12-18T17:09:54;-1.30;99.90
6421;DHT22;3243;50.958;7.012;2022-12-18T17:12:22;-1.20;99.90
6421;DHT22;3243;50.958;7.012;2022-12-18T17:17:16;-1.20;99.90
6421;DHT22;3243;50.958;7.012;2022-12-18T17:19:48;-1.20;99.90
6421;DHT22;3243;50.958;7.012;2022-12-18T17:34:39;-1.20;99.90
6421;DHT22;3243;50.958;7.012;2022-12-18T17:44:27;-1.30;99.90
6421;DHT22;3243;50.958;7.012;2022-12-18T17:46:54;-1.30;99.90
6421;DHT22;3243;50.958;7.012;2022-12-18T17:49:21;-1.40;99.90
6421;DHT22;3243;50.958;7.012;2022-12-18T18:04:10;-1.30;99.90
6421;DHT22;3243;50.958;7.012;2022-12-18T18:06:38;-1.30;99.90
6421;DHT22;3243;50.958;7.012;2022-12-18T18:09:06;-1.30;99.90
6421;DHT22;3243;50.958;7.012;2022-12-18T18:16:55;-1.40;99.90
6421;DHT22;3243;50.958;7.012;2022-12-18T18:21:52;-1.30;99.90
6421;DHT22;3243;50.958;7.012;2022-12-18T18:24:21;-1.30;99.90
6421;DHT22;3243;50.958;7.012;2022-12-18T18:29:23;-1.30;99.90
6421;DHT22;3243;50.958;7.012;2022-12-18T18:34:22;-1.30;99.90
6421;DHT22;3243;50.958;7.012;2022-12-18T18:36:50;-1.30;99.90
6421;DHT22;3243;50.958;7.012;2022-12-18T18:39:17;-1.40;99.90
6421;DHT22;3243;50.958;7.012;2022-12-18T18:41:45;-1.30;99.90
6421;DHT22;3243;50.958;7.012;2022-12-18T18:44:15;-1.30;99.90
6421;DHT22;3243;50.958;7.012;2022-12-18T18:46:42;-1.00;99.90
6421;DHT22;3243;50.958;7.012;2022-12-18T18:49:09;-1.30;99.90
6421;DHT22;3243;50.958;7.012;2022-12-18T18:51:36;-1.20;99.90
6421;DHT22;3243;50.958;7.012;2022-12-18T18:54:03;-1.20;99.90
6421;DHT22;3243;50.958;7.012;2022-12-18T18:56:31;-1.20;99.90
6421;DHT22;3243;50.958;7.012;2022-12-18T18:59:18;-1.10;99.90
6421;DHT22;3243;50.958;7.012;2022-12-18T19:01:48;-1.20;99.90
6421;DHT22;3243;50.958;7.012;2022-12-18T19:04:16;-1.10;99.90
6421;DHT22;3243;50.958;7.012;2022-12-18T19:06:43;-1.10;99.90
6421;DHT22;3243;50.958;7.012;2022-12-18T19:09:12;-1.10;99.90
6421;DHT22;3243;50.958;7.012;2022-12-18T19:11:39;-1.20;99.90
6421;DHT22;3243;50.958;7.012;2022-12-18T19:29:10;-0.90;99.90
6421;DHT22;3243;50.958;7.012;2022-12-18T19:31:37;-1.00;99.90
6421;DHT22;3243;50.958;7.012;2022-12-18T19:34:05;-1.00;99.90
6421;DHT22;3243;50.958;7.012;2022-12-18T19:36:37;-1.00;99.90
6421;DHT22;3243;50.958;7.012;2022-12-18T19:39:12;-1.00;99.90
6421;DHT22;3243;50.958;7.012;2022-12-18T19:44:10;-1.00;99.90
6421;DHT22;3243;50.958;7.012;2022-12-18T19:49:09;-0.90;99.90
6421;DHT22;3243;50.958;7.012;2022-12-18T19:54:03;-0.90;99.90
6421;DHT22;3243;50.958;7.012;2022-12-18T19:56:32;-0.80;99.90
6421;DHT22;3243;50.958;7.012;2022-12-18T19:59:00;-0.80;99.90
6421;DHT22;3243;50.958;7.012;2022-12-18T20:01:28;-0.80;99.90
6421;DHT22;3243;50.958;7.012;2022-12-18T20:03:55;-0.80;99.90
6421;DHT22;3243;50.958;7.012;2022-12-18T20:06:34;-0.80;99.90
6421;DHT22;3243;50.958;7.012;2022-12-18T20:09:04;-0.80;99.90
6421;DHT22;3243;50.958;7.012;2022-12-18T20:11:32;-0.80;99.90
6421;DHT22;3243;50.958;7.012;2022-12-18T20:14:07;-0.70;99.90
6421;DHT22;3243;50.958;7.012;2022-12-18T20:16:34;-0.80;99.90
6421;DHT22;3243;50.958;7.012;2022-12-18T20:19:01;-0.80;99.90
6421;DHT22;3243;50.958;7.012;2022-12-18T20:21:28;-0.70;99.90
6421;DHT22;3243;50.958;7.012;2022-12-18T20:23:55;-0.70;99.90
6421;DHT22;3243;50.958;7.012;2022-12-18T20:26:22;-0.60;99.90
6421;DHT22;3243;50.958;7.012;2022-12-18T20:28:49;-0.60;99.90
6421;DHT22;3243;50.958;7.012;2022-12-18T20:36:16;-0.60;99.90
6421;DHT22;3243;50.958;7.012;2022-12-18T20:41:18;-0.50;99.90
6421;DHT22;3243;50.958;7.012;2022-12-18T20:43:45;-0.60;99.90
6421;DHT22;3243;50.958;7.012;2022-12-18T20:46:14;-0.50;99.90
6421;DHT22;3243;50.958;7.012;2022-12-18T20:48:42;-0.50;99.90
6421;DHT22;3243;50.958;7.012;2022-12-18T20:51:12;-0.40;99.90
6421;DHT22;3243;50.958;7.012;2022-12-18T20:53:40;-0.40;99.90
6421;DHT22;3243;50.958;7.012;2022-12-18T20:56:10;-0.40;99.90
6421;DHT22;3243;50.958;7.012;2022-12-18T20:58:37;-0.40;99.90
6421;DHT22;3243;50.958;7.012;2022-12-18T21:03:31;-0.40;99.90
6421;DHT22;3243;50.958;7.012;2022-12-18T21:06:03;-0.30;99.90
6421;DHT22;3243;50.958;7.012;2022-12-18T21:08:30;-0.30;99.90
6421;DHT22;3243;50.958;7.012;2022-12-18T21:16:44;-0.30;99.90
6421;DHT22;3243;50.958;7.012;2022-12-18T21:19:13;-0.30;99.90
6421;DHT22;3243;50.958;7.012;2022-12-18T21:21:40;-0.30;99.90
6421;DHT22;3243;50.958;7.012;2022-12-18T21:24:08;-0.20;99.90
6421;DHT22;3243;50.958;7.012;2022-12-18T21:29:15;-0.20;99.90
6421;DHT22;3243;50.958;7.012;2022-12-18T21:31:43;-0.10;99.90
6421;DHT22;3243;50.958;7.012;2022-12-18T21:34:16;-0.10;99.90
6421;DHT22;3243;50.958;7.012;2022-12-18T21:36:43;-0.10;99.90
6421;DHT22;3243;50.958;7.012;2022-12-18T21:41:39;-0.10;99.90
6421;DHT22;3243;50.958;7.012;2022-12-18T21:44:24;-0.10;99.90
6421;DHT22;3243;50.958;7.012;2022-12-18T21:46:51;-0.10;99.90
6421;DHT22;3243;50.958;7.012;2022-12-18T21:49:25;-0.20;99.90
6421;DHT22;3243;50.958;7.012;2022-12-18T21:51:54;-0.10;99.90
6421;DHT22;3243;50.958;7.012;2022-12-18T21:56:53;-0.10;1.00
6421;DHT22;3243;50.958;7.012;2022-12-18T21:59:28;-0.20;1.00
6421;DHT22;3243;50.958;7.012;2022-12-18T22:01:58;-0.10;1.00
6421;DHT22;3243;50.958;7.012;2022-12-18T22:04:25;-0.10;1.00
6421;DHT22;3243;50.958;7.012;2022-12-18T22:06:52;-0.10;1.00
6421;DHT22;3243;50.958;7.012;2022-12-18T22:09:21;-0.20;1.00
6421;DHT22;3243;50.958;7.012;2022-12-18T22:11:49;-0.20;99.90
6421;DHT22;3243;50.958;7.012;2022-12-18T22:14:20;-0.20;99.90
6421;DHT22;3243;50.958;7.012;2022-12-18T22:16:47;-0.20;99.90
6421;DHT22;3243;50.958;7.012;2022-12-18T22:19:15;-0.20;99.90
6421;DHT22;3243;50.958;7.012;2022-12-18T22:21:44;-0.10;99.90
6421;DHT22;3243;50.958;7.012;2022-12-18T22:24:18;-0.10;99.90
6421;DHT22;3243;50.958;7.012;2022-12-18T22:26:47;-0.30;99.90
6421;DHT22;3243;50.958;7.012;2022-12-18T22:29:22;-0.20;99.90
6421;DHT22;3243;50.958;7.012;2022-12-18T22:32:09;-0.10;99.90
6421;DHT22;3243;50.958;7.012;2022-12-18T22:34:39;-0.10;1.00
6421;DHT22;3243;50.958;7.012;2022-12-18T22:37:10;-0.20;1.00
6421;DHT22;3243;50.958;7.012;2022-12-18T22:42:04;-0.10;88.20
6421;DHT22;3243;50.958;7.012;2022-12-18T22:44:31;-0.10;99.90
6421;DHT22;3243;50.958;7.012;2022-12-18T22:49:33;0.00;54.90
6421;DHT22;3243;50.958;7.012;2022-12-18T22:52:01;0.00;1.00
6421;DHT22;3243;50.958;7.012;2022-12-18T22:54:28;0.00;36.60
6421;DHT22;3243;50.958;7.012;2022-12-18T22:56:55;0.00;99.90
6421;DHT22;3243;50.958;7.012;2022-12-18T22:59:23;0.00;99.90
6421;DHT22;3243;50.958;7.012;2022-12-18T23:01:51;0.00;99.90
6421;DHT22;3243;50.958;7.012;2022-12-18T23:04:28;0.00;7.10
6421;DHT22;3243;50.958;7.012;2022-12-18T23:07:03;0.00;99.90
6421;DHT22;3243;50.958;7.012;2022-12-18T23:09:31;0.00;99.90
6421;DHT22;3243;50.958;7.012;2022-12-18T23:11:58;0.10;99.90
6421;DHT22;3243;50.958;7.012;2022-12-18T23:14:26;0.10;99.90
6421;DHT22;3243;50.958;7.012;2022-12-18T23:16:53;0.10;1.00
6421;DHT22;3243;50.958;7.012;2022-12-18T23:19:20;0.10;99.90
6421;DHT22;3243;50.958;7.012;2022-12-18T23:21:49;0.10;1.00
6421;DHT22;3243;50.958;7.012;2022-12-18T23:24:16;0.20;1.00
6421;DHT22;3243;50.958;7.012;2022-12-18T23:26:43;0.20;1.00
6421;DHT22;3243;50.958;7.012;2022-12-18T23:29:10;0.20;1.00
6421;DHT22;3243;50.958;7.012;2022-12-18T23:31:38;0.20;99.90
6421;DHT22;3243;50.958;7.012;2022-12-18T23:34:06;0.20;1.00
6421;DHT22;3243;50.958;7.012;2022-12-18T23:36:34;0.20;1.00
6421;DHT22;3243;50.958;7.012;2022-12-18T23:39:13;0.20;1.00
6421;DHT22;3243;50.958;7.012;2022-12-18T23:41:56;0.20;1.00
6421;DHT22;3243;50.958;7.012;2022-12-18T23:44:23;0.20;1.00
6421;DHT22;3243;50.958;7.012;2022-12-18T23:46:50;0.20;99.90
6421;DHT22;3243;50.958;7.012;2022-12-18T23:49:17;0.20;99.90
6421;DHT22;3243;50.958;7.012;2022-12-18T23:51:43;0.20;99.90
6421;DHT22;3243;50.958;7.012;2022-12-18T23:54:10;0.20;99.90
6421;DHT22;3243;50.958;7.012;2022-12-18T23:56:37;0.40;99.90
6421;DHT22;3243;50.958;7.012;2022-12-18T23:59:04;0.30;99.90
